sensor_id;sensor_type;location;lat;lon;timestamp;P1;durP1;ratioP1;P2;durP2;ratioP2
22780;SDS011;11557;50.884;4.322;2023-08-17T00:01:43;0.70;;;0.50;;
22780;SDS011;11557;50.884;4.322;2023-08-17T00:04:08;0.50;;;0.50;;
22780;SDS011;11557;50.884;4.322;2023-08-17T00:06:34;0.57;;;0.45;;
22780;SDS011;11557;50.884;4.322;2023-08-17T00:09:00;3.28;;;1.15;;
22780;SDS011;11557;50.884;4.322;2023-08-17T00:11:26;2.05;;;1.05;;
22780;SDS011;11557;50.884;4.322;2023-08-17T00:13:52;1.08;;;0.75;;
22780;SDS011;11557;50.884;4.322;2023-08-17T00:16:17;6.28;;;1.38;;
22780;SDS011;11557;50.884;4.322;2023-08-17T00:18:43;0.65;;;0.65;;
22780;SDS011;11557;50.884;4.322;2023-08-17T00:21:09;1.05;;;0.98;;
22780;SDS011;11557;50.884;4.322;2023-08-17T00:23:35;0.93;;;0.70;;
22780;SDS011;11557;50.884;4.322;2023-08-17T00:26:01;2.67;;;0.80;;
22780;SDS011;11557;50.884;4.322;2023-08-17T00:28:26;2.08;;;0.68;;
22780;SDS011;11557;50.884;4.322;2023-08-17T00:30:52;0.82;;;0.75;;
22780;SDS011;11557;50.884;4.322;2023-08-17T00:33:18;1.35;;;0.75;;
22780;SDS011;11557;50.884;4.322;2023-08-17T00:35:44;3.72;;;1.05;;
22780;SDS011;11557;50.884;4.322;2023-08-17T00:38:10;3.00;;;1.17;;
22780;SDS011;11557;50.884;4.322;2023-08-17T00:40:36;1.13;;;0.85;;
22780;SDS011;11557;50.884;4.322;2023-08-17T00:43:02;4.22;;;1.55;;
22780;SDS011;11557;50.884;4.322;2023-08-17T00:45:30;1.13;;;0.75;;
22780;SDS011;11557;50.884;4.322;2023-08-17T00:47:56;1.33;;;1.15;;
22780;SDS011;11557;50.884;4.322;2023-08-17T00:50:26;0.93;;;0.70;;
22780;SDS011;11557;50.884;4.322;2023-08-17T00:52:54;1.75;;;0.93;;
22780;SDS011;11557;50.884;4.322;2023-08-17T00:55:21;3.17;;;0.88;;
22780;SDS011;11557;50.884;4.322;2023-08-17T00:57:47;3.13;;;0.82;;
22780;SDS011;11557;50.884;4.322;2023-08-17T01:00:13;0.80;;;0.60;;
22780;SDS011;11557;50.884;4.322;2023-08-17T01:02:40;0.95;;;0.85;;
22780;SDS011;11557;50.884;4.322;2023-08-17T01:05:06;3.40;;;1.50;;
22780;SDS011;11557;50.884;4.322;2023-08-17T01:07:33;1.17;;;0.95;;
22780;SDS011;11557;50.884;4.322;2023-08-17T01:09:59;0.68;;;0.60;;
22780;SDS011;11557;50.884;4.322;2023-08-17T01:15:09;3.30;;;1.25;;
22780;SDS011;11557;50.884;4.322;2023-08-17T01:17:59;1.08;;;0.75;;
22780;SDS011;11557;50.884;4.322;2023-08-17T01:20:29;1.17;;;0.90;;
22780;SDS011;11557;50.884;4.322;2023-08-17T01:22:56;2.20;;;0.98;;
22780;SDS011;11557;50.884;4.322;2023-08-17T01:25:30;1.40;;;1.20;;
22780;SDS011;11557;50.884;4.322;2023-08-17T01:27:55;3.25;;;1.20;;
22780;SDS011;11557;50.884;4.322;2023-08-17T01:30:24;1.40;;;0.77;;
22780;SDS011;11557;50.884;4.322;2023-08-17T01:33:10;5.10;;;1.08;;
22780;SDS011;11557;50.884;4.322;2023-08-17T01:38:20;2.67;;;1.67;;
22780;SDS011;11557;50.884;4.322;2023-08-17T01:40:48;1.00;;;0.90;;
22780;SDS011;11557;50.884;4.322;2023-08-17T01:43:16;1.00;;;0.88;;
22780;SDS011;11557;50.884;4.322;2023-08-17T01:45:42;1.67;;;0.90;;
22780;SDS011;11557;50.884;4.322;2023-08-17T01:48:08;0.90;;;0.82;;
22780;SDS011;11557;50.884;4.322;2023-08-17T01:50:33;1.05;;;0.85;;
22780;SDS011;11557;50.884;4.322;2023-08-17T01:52:59;0.70;;;0.60;;
22780;SDS011;11557;50.884;4.322;2023-08-17T01:55:24;1.63;;;0.82;;
22780;SDS011;11557;50.884;4.322;2023-08-17T01:57:51;0.85;;;0.65;;
22780;SDS011;11557;50.884;4.322;2023-08-17T02:00:17;2.67;;;1.45;;
22780;SDS011;11557;50.884;4.322;2023-08-17T02:02:43;1.45;;;0.77;;
22780;SDS011;11557;50.884;4.322;2023-08-17T02:05:09;1.10;;;0.82;;
22780;SDS011;11557;50.884;4.322;2023-08-17T02:07:34;0.88;;;0.50;;
22780;SDS011;11557;50.884;4.322;2023-08-17T02:10:00;4.53;;;0.75;;
22780;SDS011;11557;50.884;4.322;2023-08-17T02:12:26;0.75;;;0.70;;
22780;SDS011;11557;50.884;4.322;2023-08-17T02:14:52;1.65;;;1.02;;
22780;SDS011;11557;50.884;4.322;2023-08-17T02:17:18;1.38;;;0.95;;
22780;SDS011;11557;50.884;4.322;2023-08-17T02:19:44;2.55;;;1.05;;
22780;SDS011;11557;50.884;4.322;2023-08-17T02:22:12;0.60;;;0.60;;
22780;SDS011;11557;50.884;4.322;2023-08-17T02:24:38;0.68;;;0.68;;
22780;SDS011;11557;50.884;4.322;2023-08-17T02:27:05;2.47;;;0.85;;
22780;SDS011;11557;50.884;4.322;2023-08-17T02:29:32;1.30;;;0.98;;
22780;SDS011;11557;50.884;4.322;2023-08-17T02:31:58;1.02;;;0.60;;
22780;SDS011;11557;50.884;4.322;2023-08-17T02:34:23;1.55;;;1.10;;
22780;SDS011;11557;50.884;4.322;2023-08-17T02:36:49;1.30;;;0.90;;
22780;SDS011;11557;50.884;4.322;2023-08-17T02:39:15;1.02;;;0.77;;
22780;SDS011;11557;50.884;4.322;2023-08-17T02:41:40;1.45;;;0.90;;
22780;SDS011;11557;50.884;4.322;2023-08-17T02:44:06;1.85;;;0.65;;
22780;SDS011;11557;50.884;4.322;2023-08-17T02:46:32;2.45;;;1.25;;
22780;SDS011;11557;50.884;4.322;2023-08-17T02:48:57;0.95;;;0.88;;
22780;SDS011;11557;50.884;4.322;2023-08-17T02:51:23;1.17;;;0.85;;
22780;SDS011;11557;50.884;4.322;2023-08-17T02:53:49;2.13;;;1.35;;
22780;SDS011;11557;50.884;4.322;2023-08-17T02:56:15;1.05;;;0.85;;
22780;SDS011;11557;50.884;4.322;2023-08-17T02:58:40;3.97;;;0.82;;
22780;SDS011;11557;50.884;4.322;2023-08-17T03:01:07;0.98;;;0.60;;
22780;SDS011;11557;50.884;4.322;2023-08-17T03:03:33;1.00;;;0.85;;
22780;SDS011;11557;50.884;4.322;2023-08-17T03:05:59;2.75;;;1.10;;
22780;SDS011;11557;50.884;4.322;2023-08-17T03:08:26;1.13;;;0.70;;
22780;SDS011;11557;50.884;4.322;2023-08-17T03:10:51;1.52;;;1.23;;
22780;SDS011;11557;50.884;4.322;2023-08-17T03:13:17;1.15;;;1.10;;
22780;SDS011;11557;50.884;4.322;2023-08-17T03:15:42;0.63;;;0.43;;
22780;SDS011;11557;50.884;4.322;2023-08-17T03:18:08;1.63;;;1.17;;
22780;SDS011;11557;50.884;4.322;2023-08-17T03:20:34;2.15;;;1.10;;
22780;SDS011;11557;50.884;4.322;2023-08-17T03:23:00;2.55;;;1.58;;
22780;SDS011;11557;50.884;4.322;2023-08-17T03:25:25;1.27;;;0.93;;
22780;SDS011;11557;50.884;4.322;2023-08-17T03:27:51;1.15;;;0.88;;
22780;SDS011;11557;50.884;4.322;2023-08-17T03:30:17;1.10;;;1.05;;
22780;SDS011;11557;50.884;4.322;2023-08-17T03:32:42;2.72;;;0.80;;
22780;SDS011;11557;50.884;4.322;2023-08-17T03:35:08;0.82;;;0.82;;
22780;SDS011;11557;50.884;4.322;2023-08-17T03:37:34;1.13;;;0.80;;
22780;SDS011;11557;50.884;4.322;2023-08-17T03:39:59;2.97;;;0.93;;
22780;SDS011;11557;50.884;4.322;2023-08-17T03:42:28;0.77;;;0.77;;
22780;SDS011;11557;50.884;4.322;2023-08-17T03:44:54;1.30;;;0.90;;
22780;SDS011;11557;50.884;4.322;2023-08-17T03:47:20;1.17;;;0.75;;
22780;SDS011;11557;50.884;4.322;2023-08-17T03:49:45;0.95;;;0.88;;
22780;SDS011;11557;50.884;4.322;2023-08-17T03:52:12;2.55;;;0.60;;
22780;SDS011;11557;50.884;4.322;2023-08-17T03:54:37;1.67;;;0.75;;
22780;SDS011;11557;50.884;4.322;2023-08-17T03:57:03;1.65;;;1.13;;
22780;SDS011;11557;50.884;4.322;2023-08-17T03:59:29;2.67;;;1.35;;
22780;SDS011;11557;50.884;4.322;2023-08-17T04:01:55;4.13;;;1.60;;
22780;SDS011;11557;50.884;4.322;2023-08-17T04:04:21;1.13;;;0.80;;
22780;SDS011;11557;50.884;4.322;2023-08-17T04:06:47;2.13;;;1.52;;
22780;SDS011;11557;50.884;4.322;2023-08-17T04:09:13;0.85;;;0.80;;
22780;SDS011;11557;50.884;4.322;2023-08-17T04:11:38;1.48;;;0.95;;
22780;SDS011;11557;50.884;4.322;2023-08-17T04:14:04;1.05;;;0.63;;
22780;SDS011;11557;50.884;4.322;2023-08-17T04:16:30;3.40;;;1.17;;
22780;SDS011;11557;50.884;4.322;2023-08-17T04:18:57;1.17;;;1.08;;
22780;SDS011;11557;50.884;4.322;2023-08-17T04:21:22;0.88;;;0.50;;
22780;SDS011;11557;50.884;4.322;2023-08-17T04:23:48;3.20;;;1.05;;
22780;SDS011;11557;50.884;4.322;2023-08-17T04:26:14;1.92;;;1.23;;
22780;SDS011;11557;50.884;4.322;2023-08-17T04:28:39;0.73;;;0.70;;
22780;SDS011;11557;50.884;4.322;2023-08-17T04:31:05;2.55;;;1.08;;
22780;SDS011;11557;50.884;4.322;2023-08-17T04:33:31;2.38;;;0.68;;
22780;SDS011;11557;50.884;4.322;2023-08-17T04:35:56;4.40;;;0.88;;
22780;SDS011;11557;50.884;4.322;2023-08-17T04:38:24;1.88;;;0.82;;
22780;SDS011;11557;50.884;4.322;2023-08-17T04:40:50;1.45;;;0.93;;
22780;SDS011;11557;50.884;4.322;2023-08-17T04:43:16;0.90;;;0.85;;
22780;SDS011;11557;50.884;4.322;2023-08-17T04:45:41;2.05;;;0.60;;
22780;SDS011;11557;50.884;4.322;2023-08-17T04:48:07;1.02;;;0.90;;
22780;SDS011;11557;50.884;4.322;2023-08-17T04:50:33;2.67;;;0.80;;
22780;SDS011;11557;50.884;4.322;2023-08-17T04:52:59;1.55;;;0.82;;
22780;SDS011;11557;50.884;4.322;2023-08-17T04:55:24;1.80;;;0.70;;
22780;SDS011;11557;50.884;4.322;2023-08-17T04:57:50;5.25;;;1.05;;
22780;SDS011;11557;50.884;4.322;2023-08-17T05:00:15;1.35;;;0.90;;
22780;SDS011;11557;50.884;4.322;2023-08-17T05:02:41;4.22;;;1.40;;
22780;SDS011;11557;50.884;4.322;2023-08-17T05:05:09;2.45;;;1.25;;
22780;SDS011;11557;50.884;4.322;2023-08-17T05:07:35;1.25;;;0.70;;
22780;SDS011;11557;50.884;4.322;2023-08-17T05:10:01;1.48;;;1.02;;
22780;SDS011;11557;50.884;4.322;2023-08-17T05:12:27;0.60;;;0.60;;
22780;SDS011;11557;50.884;4.322;2023-08-17T05:14:53;1.10;;;0.80;;
22780;SDS011;11557;50.884;4.322;2023-08-17T05:17:19;2.10;;;1.02;;
22780;SDS011;11557;50.884;4.322;2023-08-17T05:19:44;0.80;;;0.60;;
22780;SDS011;11557;50.884;4.322;2023-08-17T05:22:11;2.45;;;1.00;;
22780;SDS011;11557;50.884;4.322;2023-08-17T05:24:37;1.30;;;0.98;;
22780;SDS011;11557;50.884;4.322;2023-08-17T05:27:04;5.88;;;1.48;;
22780;SDS011;11557;50.884;4.322;2023-08-17T05:29:30;7.47;;;1.23;;
22780;SDS011;11557;50.884;4.322;2023-08-17T05:31:57;2.65;;;1.67;;
22780;SDS011;11557;50.884;4.322;2023-08-17T05:34:23;2.13;;;0.68;;
22780;SDS011;11557;50.884;4.322;2023-08-17T05:36:49;1.10;;;0.65;;
22780;SDS011;11557;50.884;4.322;2023-08-17T05:39:14;1.65;;;0.80;;
22780;SDS011;11557;50.884;4.322;2023-08-17T05:41:40;0.85;;;0.85;;
22780;SDS011;11557;50.884;4.322;2023-08-17T05:44:06;5.25;;;1.05;;
22780;SDS011;11557;50.884;4.322;2023-08-17T05:46:32;1.92;;;0.55;;
22780;SDS011;11557;50.884;4.322;2023-08-17T05:48:58;0.85;;;0.70;;
22780;SDS011;11557;50.884;4.322;2023-08-17T05:51:25;0.50;;;0.50;;
22780;SDS011;11557;50.884;4.322;2023-08-17T05:53:50;5.13;;;1.00;;
22780;SDS011;11557;50.884;4.322;2023-08-17T05:56:16;5.05;;;1.35;;
22780;SDS011;11557;50.884;4.322;2023-08-17T05:58:42;2.33;;;1.05;;
22780;SDS011;11557;50.884;4.322;2023-08-17T06:01:08;3.60;;;1.58;;
22780;SDS011;11557;50.884;4.322;2023-08-17T06:03:35;2.55;;;1.55;;
22780;SDS011;11557;50.884;4.322;2023-08-17T06:06:02;2.30;;;1.27;;
22780;SDS011;11557;50.884;4.322;2023-08-17T06:08:28;2.13;;;0.90;;
22780;SDS011;11557;50.884;4.322;2023-08-17T06:10:55;0.75;;;0.70;;
22780;SDS011;11557;50.884;4.322;2023-08-17T06:13:21;6.25;;;1.50;;
22780;SDS011;11557;50.884;4.322;2023-08-17T06:15:46;0.77;;;0.65;;
22780;SDS011;11557;50.884;4.322;2023-08-17T06:18:12;1.80;;;0.95;;
22780;SDS011;11557;50.884;4.322;2023-08-17T06:20:38;1.33;;;1.10;;
22780;SDS011;11557;50.884;4.322;2023-08-17T06:23:04;1.38;;;0.70;;
22780;SDS011;11557;50.884;4.322;2023-08-17T06:25:30;0.82;;;0.55;;
22780;SDS011;11557;50.884;4.322;2023-08-17T06:27:56;3.55;;;1.02;;
22780;SDS011;11557;50.884;4.322;2023-08-17T06:30:21;8.63;;;1.35;;
22780;SDS011;11557;50.884;4.322;2023-08-17T06:32:47;1.00;;;0.70;;
22780;SDS011;11557;50.884;4.322;2023-08-17T06:35:15;1.58;;;1.13;;
22780;SDS011;11557;50.884;4.322;2023-08-17T06:37:41;1.63;;;1.17;;
22780;SDS011;11557;50.884;4.322;2023-08-17T06:40:06;0.82;;;0.60;;
22780;SDS011;11557;50.884;4.322;2023-08-17T06:42:34;3.50;;;1.40;;
22780;SDS011;11557;50.884;4.322;2023-08-17T06:45:00;2.15;;;1.27;;
22780;SDS011;11557;50.884;4.322;2023-08-17T06:47:25;1.60;;;0.90;;
22780;SDS011;11557;50.884;4.322;2023-08-17T06:49:51;1.90;;;1.10;;
22780;SDS011;11557;50.884;4.322;2023-08-17T06:52:17;1.13;;;1.00;;
22780;SDS011;11557;50.884;4.322;2023-08-17T06:54:42;3.55;;;0.98;;
22780;SDS011;11557;50.884;4.322;2023-08-17T06:57:08;1.98;;;1.38;;
22780;SDS011;11557;50.884;4.322;2023-08-17T06:59:34;4.97;;;1.38;;
22780;SDS011;11557;50.884;4.322;2023-08-17T07:02:00;2.15;;;1.33;;
22780;SDS011;11557;50.884;4.322;2023-08-17T07:04:25;2.35;;;1.13;;
22780;SDS011;11557;50.884;4.322;2023-08-17T07:06:51;5.53;;;0.95;;
22780;SDS011;11557;50.884;4.322;2023-08-17T07:09:17;0.82;;;0.82;;
22780;SDS011;11557;50.884;4.322;2023-08-17T07:11:43;2.67;;;0.80;;
22780;SDS011;11557;50.884;4.322;2023-08-17T07:14:09;6.10;;;1.58;;
22780;SDS011;11557;50.884;4.322;2023-08-17T07:16:35;4.30;;;1.30;;
22780;SDS011;11557;50.884;4.322;2023-08-17T07:19:01;4.47;;;1.92;;
22780;SDS011;11557;50.884;4.322;2023-08-17T07:21:27;2.50;;;1.70;;
22780;SDS011;11557;50.884;4.322;2023-08-17T07:23:54;2.13;;;1.30;;
22780;SDS011;11557;50.884;4.322;2023-08-17T07:26:20;1.70;;;1.25;;
22780;SDS011;11557;50.884;4.322;2023-08-17T07:28:47;6.00;;;1.10;;
22780;SDS011;11557;50.884;4.322;2023-08-17T07:31:14;2.10;;;0.98;;
22780;SDS011;11557;50.884;4.322;2023-08-17T07:33:40;6.88;;;1.27;;
22780;SDS011;11557;50.884;4.322;2023-08-17T07:36:05;4.00;;;1.45;;
22780;SDS011;11557;50.884;4.322;2023-08-17T07:38:31;1.02;;;0.98;;
22780;SDS011;11557;50.884;4.322;2023-08-17T07:40:57;1.30;;;0.73;;
22780;SDS011;11557;50.884;4.322;2023-08-17T07:43:23;1.63;;;0.82;;
22780;SDS011;11557;50.884;4.322;2023-08-17T07:45:53;3.35;;;1.67;;
22780;SDS011;11557;50.884;4.322;2023-08-17T07:48:22;1.83;;;1.25;;
22780;SDS011;11557;50.884;4.322;2023-08-17T07:50:48;3.03;;;0.82;;
22780;SDS011;11557;50.884;4.322;2023-08-17T07:53:15;1.20;;;1.10;;
22780;SDS011;11557;50.884;4.322;2023-08-17T07:55:41;1.65;;;1.40;;
22780;SDS011;11557;50.884;4.322;2023-08-17T07:58:06;3.10;;;1.77;;
22780;SDS011;11557;50.884;4.322;2023-08-17T08:00:32;1.98;;;0.88;;
22780;SDS011;11557;50.884;4.322;2023-08-17T08:02:58;1.48;;;1.05;;
22780;SDS011;11557;50.884;4.322;2023-08-17T08:05:23;1.80;;;1.17;;
22780;SDS011;11557;50.884;4.322;2023-08-17T08:07:49;2.90;;;0.80;;
22780;SDS011;11557;50.884;4.322;2023-08-17T08:10:15;2.75;;;1.50;;
22780;SDS011;11557;50.884;4.322;2023-08-17T08:12:41;2.17;;;1.35;;
22780;SDS011;11557;50.884;4.322;2023-08-17T08:15:06;2.97;;;1.33;;
22780;SDS011;11557;50.884;4.322;2023-08-17T08:17:33;4.78;;;1.92;;
22780;SDS011;11557;50.884;4.322;2023-08-17T08:19:58;1.52;;;1.35;;
22780;SDS011;11557;50.884;4.322;2023-08-17T08:22:24;5.07;;;1.42;;
22780;SDS011;11557;50.884;4.322;2023-08-17T08:24:50;1.83;;;1.13;;
22780;SDS011;11557;50.884;4.322;2023-08-17T08:27:16;2.42;;;1.75;;
22780;SDS011;11557;50.884;4.322;2023-08-17T08:29:41;1.42;;;0.95;;
22780;SDS011;11557;50.884;4.322;2023-08-17T08:32:07;2.40;;;1.48;;
22780;SDS011;11557;50.884;4.322;2023-08-17T08:34:33;4.93;;;1.48;;
22780;SDS011;11557;50.884;4.322;2023-08-17T08:36:59;2.88;;;0.93;;
22780;SDS011;11557;50.884;4.322;2023-08-17T08:39:25;1.42;;;1.25;;
22780;SDS011;11557;50.884;4.322;2023-08-17T08:41:52;2.83;;;1.23;;
22780;SDS011;11557;50.884;4.322;2023-08-17T08:44:18;4.47;;;1.67;;
22780;SDS011;11557;50.884;4.322;2023-08-17T08:46:44;2.00;;;1.17;;
22780;SDS011;11557;50.884;4.322;2023-08-17T08:49:10;4.20;;;1.10;;
22780;SDS011;11557;50.884;4.322;2023-08-17T08:51:44;3.03;;;1.77;;
22780;SDS011;11557;50.884;4.322;2023-08-17T08:54:13;1.77;;;1.42;;
22780;SDS011;11557;50.884;4.322;2023-08-17T08:56:55;3.60;;;1.45;;
22780;SDS011;11557;50.884;4.322;2023-08-17T08:59:26;1.15;;;1.05;;
22780;SDS011;11557;50.884;4.322;2023-08-17T09:01:53;3.63;;;1.23;;
22780;SDS011;11557;50.884;4.322;2023-08-17T09:04:21;8.60;;;1.85;;
22780;SDS011;11557;50.884;4.322;2023-08-17T09:06:48;2.35;;;1.00;;
22780;SDS011;11557;50.884;4.322;2023-08-17T09:09:15;2.15;;;1.02;;
22780;SDS011;11557;50.884;4.322;2023-08-17T09:11:43;4.47;;;1.17;;
22780;SDS011;11557;50.884;4.322;2023-08-17T09:14:08;5.85;;;1.10;;
22780;SDS011;11557;50.884;4.322;2023-08-17T09:16:34;1.50;;;1.27;;
22780;SDS011;11557;50.884;4.322;2023-08-17T09:19:00;1.08;;;0.90;;
22780;SDS011;11557;50.884;4.322;2023-08-17T09:21:26;2.67;;;0.95;;
22780;SDS011;11557;50.884;4.322;2023-08-17T09:23:57;5.25;;;1.23;;
22780;SDS011;11557;50.884;4.322;2023-08-17T09:26:23;1.73;;;1.02;;
22780;SDS011;11557;50.884;4.322;2023-08-17T09:28:52;2.15;;;1.10;;
22780;SDS011;11557;50.884;4.322;2023-08-17T09:31:22;2.55;;;1.08;;
22780;SDS011;11557;50.884;4.322;2023-08-17T09:33:52;2.58;;;1.40;;
22780;SDS011;11557;50.884;4.322;2023-08-17T09:36:21;1.95;;;1.13;;
22780;SDS011;11557;50.884;4.322;2023-08-17T09:38:48;1.65;;;1.05;;
22780;SDS011;11557;50.884;4.322;2023-08-17T09:41:17;2.03;;;1.10;;
22780;SDS011;11557;50.884;4.322;2023-08-17T09:43:43;2.08;;;1.17;;
22780;SDS011;11557;50.884;4.322;2023-08-17T09:46:09;3.45;;;1.48;;
22780;SDS011;11557;50.884;4.322;2023-08-17T09:48:36;3.10;;;1.92;;
22780;SDS011;11557;50.884;4.322;2023-08-17T09:51:01;5.18;;;1.50;;
22780;SDS011;11557;50.884;4.322;2023-08-17T09:53:27;3.42;;;1.92;;
22780;SDS011;11557;50.884;4.322;2023-08-17T09:55:53;1.77;;;1.48;;
22780;SDS011;11557;50.884;4.322;2023-08-17T09:58:22;1.58;;;1.33;;
22780;SDS011;11557;50.884;4.322;2023-08-17T10:00:48;1.35;;;1.25;;
22780;SDS011;11557;50.884;4.322;2023-08-17T10:03:15;4.43;;;2.17;;
22780;SDS011;11557;50.884;4.322;2023-08-17T10:05:44;2.15;;;1.30;;
22780;SDS011;11557;50.884;4.322;2023-08-17T10:08:14;1.88;;;1.45;;
22780;SDS011;11557;50.884;4.322;2023-08-17T10:10:45;2.10;;;1.27;;
22780;SDS011;11557;50.884;4.322;2023-08-17T10:13:28;3.70;;;1.90;;
22780;SDS011;11557;50.884;4.322;2023-08-17T10:16:02;3.03;;;1.67;;
22780;SDS011;11557;50.884;4.322;2023-08-17T10:18:59;2.42;;;1.38;;
22780;SDS011;11557;50.884;4.322;2023-08-17T10:21:40;1.98;;;1.38;;
22780;SDS011;11557;50.884;4.322;2023-08-17T10:24:13;2.88;;;1.88;;
22780;SDS011;11557;50.884;4.322;2023-08-17T10:26:39;2.25;;;1.48;;
22780;SDS011;11557;50.884;4.322;2023-08-17T10:29:06;3.30;;;1.20;;
22780;SDS011;11557;50.884;4.322;2023-08-17T10:31:33;0.98;;;0.80;;
22780;SDS011;11557;50.884;4.322;2023-08-17T10:34:00;1.45;;;1.20;;
22780;SDS011;11557;50.884;4.322;2023-08-17T10:36:27;1.60;;;1.20;;
22780;SDS011;11557;50.884;4.322;2023-08-17T10:41:46;4.90;;;1.27;;
22780;SDS011;11557;50.884;4.322;2023-08-17T10:45:01;3.22;;;1.85;;
22780;SDS011;11557;50.884;4.322;2023-08-17T10:49:51;2.15;;;1.48;;
22780;SDS011;11557;50.884;4.322;2023-08-17T10:52:34;1.35;;;1.10;;
22780;SDS011;11557;50.884;4.322;2023-08-17T10:55:03;8.07;;;1.35;;
22780;SDS011;11557;50.884;4.322;2023-08-17T11:02:40;2.25;;;1.58;;
22780;SDS011;11557;50.884;4.322;2023-08-17T11:05:09;2.83;;;2.10;;
22780;SDS011;11557;50.884;4.322;2023-08-17T11:07:44;8.23;;;1.75;;
22780;SDS011;11557;50.884;4.322;2023-08-17T11:12:44;1.38;;;0.98;;
22780;SDS011;11557;50.884;4.322;2023-08-17T11:15:10;3.03;;;1.10;;
22780;SDS011;11557;50.884;4.322;2023-08-17T11:17:36;3.38;;;1.63;;
22780;SDS011;11557;50.884;4.322;2023-08-17T11:20:03;2.72;;;1.77;;
22780;SDS011;11557;50.884;4.322;2023-08-17T11:22:29;4.13;;;1.48;;
22780;SDS011;11557;50.884;4.322;2023-08-17T11:24:55;5.53;;;2.10;;
22780;SDS011;11557;50.884;4.322;2023-08-17T11:27:21;3.30;;;1.73;;
22780;SDS011;11557;50.884;4.322;2023-08-17T11:29:47;3.38;;;1.77;;
22780;SDS011;11557;50.884;4.322;2023-08-17T11:32:15;2.90;;;1.30;;
22780;SDS011;11557;50.884;4.322;2023-08-17T11:34:42;2.13;;;1.23;;
22780;SDS011;11557;50.884;4.322;2023-08-17T11:37:08;2.88;;;1.50;;
22780;SDS011;11557;50.884;4.322;2023-08-17T11:39:36;1.60;;;1.05;;
22780;SDS011;11557;50.884;4.322;2023-08-17T11:42:02;5.55;;;2.42;;
22780;SDS011;11557;50.884;4.322;2023-08-17T11:44:28;2.80;;;1.92;;
22780;SDS011;11557;50.884;4.322;2023-08-17T11:46:54;1.77;;;1.38;;
22780;SDS011;11557;50.884;4.322;2023-08-17T11:49:19;1.30;;;1.10;;
22780;SDS011;11557;50.884;4.322;2023-08-17T11:51:47;1.85;;;1.10;;
22780;SDS011;11557;50.884;4.322;2023-08-17T11:54:13;4.60;;;1.90;;
22780;SDS011;11557;50.884;4.322;2023-08-17T11:56:38;1.48;;;1.30;;
22780;SDS011;11557;50.884;4.322;2023-08-17T11:59:10;2.50;;;1.70;;
22780;SDS011;11557;50.884;4.322;2023-08-17T12:01:43;4.03;;;2.08;;
22780;SDS011;11557;50.884;4.322;2023-08-17T12:04:10;3.15;;;1.98;;
22780;SDS011;11557;50.884;4.322;2023-08-17T12:06:37;3.60;;;1.90;;
22780;SDS011;11557;50.884;4.322;2023-08-17T12:09:09;4.32;;;1.95;;
22780;SDS011;11557;50.884;4.322;2023-08-17T12:11:35;6.85;;;1.70;;
22780;SDS011;11557;50.884;4.322;2023-08-17T12:14:07;3.67;;;2.03;;
22780;SDS011;11557;50.884;4.322;2023-08-17T12:16:44;1.92;;;1.48;;
22780;SDS011;11557;50.884;4.322;2023-08-17T12:19:12;3.85;;;1.90;;
22780;SDS011;11557;50.884;4.322;2023-08-17T12:21:40;6.05;;;2.00;;
22780;SDS011;11557;50.884;4.322;2023-08-17T12:24:07;2.83;;;1.85;;
22780;SDS011;11557;50.884;4.322;2023-08-17T12:26:34;4.07;;;2.53;;
22780;SDS011;11557;50.884;4.322;2023-08-17T12:29:00;4.30;;;2.40;;
22780;SDS011;11557;50.884;4.322;2023-08-17T12:31:29;7.07;;;2.38;;
22780;SDS011;11557;50.884;4.322;2023-08-17T12:33:55;4.45;;;2.88;;
22780;SDS011;11557;50.884;4.322;2023-08-17T12:36:21;3.42;;;2.03;;
22780;SDS011;11557;50.884;4.322;2023-08-17T12:38:47;4.57;;;2.47;;
22780;SDS011;11557;50.884;4.322;2023-08-17T12:41:13;4.10;;;1.67;;
22780;SDS011;11557;50.884;4.322;2023-08-17T12:43:38;3.85;;;2.40;;
22780;SDS011;11557;50.884;4.322;2023-08-17T12:46:04;4.35;;;2.20;;
22780;SDS011;11557;50.884;4.322;2023-08-17T12:48:30;4.22;;;2.08;;
22780;SDS011;11557;50.884;4.322;2023-08-17T12:50:55;10.77;;;2.03;;
22780;SDS011;11557;50.884;4.322;2023-08-17T12:53:21;4.68;;;2.17;;
22780;SDS011;11557;50.884;4.322;2023-08-17T12:55:47;2.83;;;1.60;;
22780;SDS011;11557;50.884;4.322;2023-08-17T12:58:14;6.28;;;2.13;;
22780;SDS011;11557;50.884;4.322;2023-08-17T13:00:39;3.95;;;1.70;;
22780;SDS011;11557;50.884;4.322;2023-08-17T13:03:05;5.00;;;2.70;;
22780;SDS011;11557;50.884;4.322;2023-08-17T13:05:30;4.28;;;2.78;;
22780;SDS011;11557;50.884;4.322;2023-08-17T13:07:57;2.22;;;1.63;;
22780;SDS011;11557;50.884;4.322;2023-08-17T13:10:22;4.28;;;2.65;;
22780;SDS011;11557;50.884;4.322;2023-08-17T13:12:48;5.00;;;2.72;;
22780;SDS011;11557;50.884;4.322;2023-08-17T13:15:13;5.10;;;3.03;;
22780;SDS011;11557;50.884;4.322;2023-08-17T13:17:39;4.10;;;2.08;;
22780;SDS011;11557;50.884;4.322;2023-08-17T13:20:05;6.90;;;2.83;;
22780;SDS011;11557;50.884;4.322;2023-08-17T13:22:31;5.22;;;2.83;;
22780;SDS011;11557;50.884;4.322;2023-08-17T13:24:58;5.18;;;2.90;;
22780;SDS011;11557;50.884;4.322;2023-08-17T13:27:24;8.30;;;3.47;;
22780;SDS011;11557;50.884;4.322;2023-08-17T13:29:49;3.90;;;2.55;;
22780;SDS011;11557;50.884;4.322;2023-08-17T13:32:15;9.05;;;2.75;;
22780;SDS011;11557;50.884;4.322;2023-08-17T13:34:41;6.93;;;3.22;;
22780;SDS011;11557;50.884;4.322;2023-08-17T13:37:07;4.22;;;2.75;;
22780;SDS011;11557;50.884;4.322;2023-08-17T13:39:33;8.88;;;3.58;;
22780;SDS011;11557;50.884;4.322;2023-08-17T13:41:58;7.47;;;3.47;;
22780;SDS011;11557;50.884;4.322;2023-08-17T13:44:24;5.88;;;3.25;;
22780;SDS011;11557;50.884;4.322;2023-08-17T13:46:50;7.38;;;2.90;;
22780;SDS011;11557;50.884;4.322;2023-08-17T13:49:15;6.65;;;3.65;;
22780;SDS011;11557;50.884;4.322;2023-08-17T13:51:41;4.57;;;3.28;;
22780;SDS011;11557;50.884;4.322;2023-08-17T13:54:07;4.55;;;3.22;;
22780;SDS011;11557;50.884;4.322;2023-08-17T13:56:32;8.30;;;4.63;;
22780;SDS011;11557;50.884;4.322;2023-08-17T13:58:58;6.00;;;3.72;;
22780;SDS011;11557;50.884;4.322;2023-08-17T14:01:24;6.60;;;3.45;;
22780;SDS011;11557;50.884;4.322;2023-08-17T14:03:50;4.90;;;2.42;;
22780;SDS011;11557;50.884;4.322;2023-08-17T14:06:15;4.22;;;2.47;;
22780;SDS011;11557;50.884;4.322;2023-08-17T14:08:41;5.65;;;2.97;;
22780;SDS011;11557;50.884;4.322;2023-08-17T14:11:07;6.45;;;3.63;;
22780;SDS011;11557;50.884;4.322;2023-08-17T14:13:33;4.82;;;2.55;;
22780;SDS011;11557;50.884;4.322;2023-08-17T14:16:01;4.38;;;2.92;;
22780;SDS011;11557;50.884;4.322;2023-08-17T14:18:27;5.20;;;2.92;;
22780;SDS011;11557;50.884;4.322;2023-08-17T14:20:53;6.22;;;3.70;;
22780;SDS011;11557;50.884;4.322;2023-08-17T14:23:19;3.80;;;2.58;;
22780;SDS011;11557;50.884;4.322;2023-08-17T14:25:44;8.55;;;4.53;;
22780;SDS011;11557;50.884;4.322;2023-08-17T14:28:10;4.32;;;3.78;;
22780;SDS011;11557;50.884;4.322;2023-08-17T14:30:36;5.45;;;2.25;;
22780;SDS011;11557;50.884;4.322;2023-08-17T14:33:02;7.70;;;3.42;;
22780;SDS011;11557;50.884;4.322;2023-08-17T14:35:28;6.55;;;3.20;;
22780;SDS011;11557;50.884;4.322;2023-08-17T14:37:53;11.25;;;3.28;;
22780;SDS011;11557;50.884;4.322;2023-08-17T14:40:22;3.92;;;2.33;;
22780;SDS011;11557;50.884;4.322;2023-08-17T14:42:48;4.88;;;3.00;;
22780;SDS011;11557;50.884;4.322;2023-08-17T14:45:14;6.22;;;2.88;;
22780;SDS011;11557;50.884;4.322;2023-08-17T14:47:40;6.22;;;3.25;;
22780;SDS011;11557;50.884;4.322;2023-08-17T14:50:05;3.42;;;1.88;;
22780;SDS011;11557;50.884;4.322;2023-08-17T14:52:31;6.78;;;2.03;;
22780;SDS011;11557;50.884;4.322;2023-08-17T14:54:57;3.83;;;2.08;;
22780;SDS011;11557;50.884;4.322;2023-08-17T14:57:22;3.47;;;2.53;;
22780;SDS011;11557;50.884;4.322;2023-08-17T14:59:48;6.22;;;2.70;;
22780;SDS011;11557;50.884;4.322;2023-08-17T15:02:14;3.70;;;2.70;;
22780;SDS011;11557;50.884;4.322;2023-08-17T15:04:41;9.75;;;2.47;;